sensor_id;sensor_type;location;lat;lon;timestamp;P1;durP1;ratioP1;P2;durP2;ratioP2
17725;SDS011;8983;53.156;17.960;2023-03-12T00:00:47;7.10;;;3.70;;
17725;SDS011;8983;53.156;17.960;2023-03-12T00:03:15;5.47;;;3.70;;
17725;SDS011;8983;53.156;17.960;2023-03-12T00:05:44;5.33;;;3.73;;
17725;SDS011;8983;53.156;17.960;2023-03-12T00:08:12;4.47;;;3.33;;
17725;SDS011;8983;53.156;17.960;2023-03-12T00:10:40;2.47;;;2.37;;
17725;SDS011;8983;53.156;17.960;2023-03-12T00:13:10;5.37;;;3.30;;
17725;SDS011;8983;53.156;17.960;2023-03-12T00:15:38;3.23;;;2.93;;
17725;SDS011;8983;53.156;17.960;2023-03-12T00:18:06;7.63;;;4.03;;
17725;SDS011;8983;53.156;17.960;2023-03-12T00:20:34;5.37;;;3.13;;
17725;SDS011;8983;53.156;17.960;2023-03-12T00:23:02;3.43;;;2.80;;
17725;SDS011;8983;53.156;17.960;2023-03-12T00:25:30;4.37;;;3.50;;
17725;SDS011;8983;53.156;17.960;2023-03-12T00:27:58;7.27;;;3.80;;
17725;SDS011;8983;53.156;17.960;2023-03-12T00:30:28;5.63;;;3.70;;
17725;SDS011;8983;53.156;17.960;2023-03-12T00:32:57;5.33;;;3.93;;
17725;SDS011;8983;53.156;17.960;2023-03-12T00:35:25;5.73;;;3.50;;
17725;SDS011;8983;53.156;17.960;2023-03-12T00:37:53;9.93;;;3.77;;
17725;SDS011;8983;53.156;17.960;2023-03-12T00:40:21;5.00;;;3.73;;
17725;SDS011;8983;53.156;17.960;2023-03-12T00:42:49;4.73;;;3.20;;
17725;SDS011;8983;53.156;17.960;2023-03-12T00:45:18;5.37;;;3.20;;
17725;SDS011;8983;53.156;17.960;2023-03-12T00:47:47;5.77;;;3.33;;
17725;SDS011;8983;53.156;17.960;2023-03-12T00:50:15;6.87;;;3.50;;
17725;SDS011;8983;53.156;17.960;2023-03-12T00:52:44;6.07;;;3.20;;
17725;SDS011;8983;53.156;17.960;2023-03-12T00:55:12;5.33;;;2.23;;
17725;SDS011;8983;53.156;17.960;2023-03-12T00:57:40;4.33;;;3.80;;
17725;SDS011;8983;53.156;17.960;2023-03-12T01:00:09;6.27;;;3.40;;
17725;SDS011;8983;53.156;17.960;2023-03-12T01:02:39;5.13;;;3.50;;
17725;SDS011;8983;53.156;17.960;2023-03-12T01:05:09;7.13;;;3.57;;
17725;SDS011;8983;53.156;17.960;2023-03-12T01:07:39;4.13;;;3.00;;
17725;SDS011;8983;53.156;17.960;2023-03-12T01:10:08;6.50;;;3.17;;
17725;SDS011;8983;53.156;17.960;2023-03-12T01:12:38;4.80;;;2.30;;
17725;SDS011;8983;53.156;17.960;2023-03-12T01:15:07;5.43;;;3.50;;
17725;SDS011;8983;53.156;17.960;2023-03-12T01:17:36;5.67;;;3.40;;
17725;SDS011;8983;53.156;17.960;2023-03-12T01:20:04;6.57;;;4.03;;
17725;SDS011;8983;53.156;17.960;2023-03-12T01:22:35;6.77;;;3.50;;
17725;SDS011;8983;53.156;17.960;2023-03-12T01:25:04;5.57;;;3.40;;
17725;SDS011;8983;53.156;17.960;2023-03-12T01:27:33;7.60;;;3.67;;
17725;SDS011;8983;53.156;17.960;2023-03-12T01:30:01;5.00;;;3.40;;
17725;SDS011;8983;53.156;17.960;2023-03-12T01:32:29;4.27;;;2.93;;
17725;SDS011;8983;53.156;17.960;2023-03-12T01:34:57;4.80;;;3.33;;
17725;SDS011;8983;53.156;17.960;2023-03-12T01:37:26;3.87;;;2.90;;
17725;SDS011;8983;53.156;17.960;2023-03-12T01:39:56;6.37;;;3.33;;
17725;SDS011;8983;53.156;17.960;2023-03-12T01:42:24;5.03;;;3.40;;
17725;SDS011;8983;53.156;17.960;2023-03-12T01:44:53;5.80;;;3.30;;
17725;SDS011;8983;53.156;17.960;2023-03-12T01:47:22;6.50;;;3.30;;
17725;SDS011;8983;53.156;17.960;2023-03-12T01:49:51;4.93;;;3.30;;
17725;SDS011;8983;53.156;17.960;2023-03-12T01:52:21;4.37;;;3.37;;
17725;SDS011;8983;53.156;17.960;2023-03-12T01:54:52;3.80;;;3.10;;
17725;SDS011;8983;53.156;17.960;2023-03-12T01:57:24;4.40;;;3.50;;
17725;SDS011;8983;53.156;17.960;2023-03-12T01:59:57;3.97;;;3.00;;
17725;SDS011;8983;53.156;17.960;2023-03-12T02:02:30;6.37;;;3.50;;
17725;SDS011;8983;53.156;17.960;2023-03-12T02:05:04;2.97;;;2.43;;
17725;SDS011;8983;53.156;17.960;2023-03-12T02:07:38;4.77;;;3.07;;
17725;SDS011;8983;53.156;17.960;2023-03-12T02:10:06;4.37;;;3.50;;
17725;SDS011;8983;53.156;17.960;2023-03-12T02:12:36;5.37;;;3.20;;
17725;SDS011;8983;53.156;17.960;2023-03-12T02:15:05;4.07;;;3.10;;
17725;SDS011;8983;53.156;17.960;2023-03-12T02:17:34;3.53;;;3.23;;
17725;SDS011;8983;53.156;17.960;2023-03-12T02:20:05;4.80;;;3.20;;
17725;SDS011;8983;53.156;17.960;2023-03-12T02:22:40;5.10;;;3.80;;
17725;SDS011;8983;53.156;17.960;2023-03-12T02:25:20;4.70;;;3.17;;
17725;SDS011;8983;53.156;17.960;2023-03-12T02:27:56;9.10;;;4.13;;
17725;SDS011;8983;53.156;17.960;2023-03-12T02:30:26;7.33;;;2.93;;
17725;SDS011;8983;53.156;17.960;2023-03-12T02:32:57;6.30;;;4.27;;
17725;SDS011;8983;53.156;17.960;2023-03-12T02:35:28;4.70;;;2.90;;
17725;SDS011;8983;53.156;17.960;2023-03-12T02:37:56;9.70;;;3.43;;
17725;SDS011;8983;53.156;17.960;2023-03-12T02:40:26;5.30;;;3.10;;
17725;SDS011;8983;53.156;17.960;2023-03-12T02:42:58;6.13;;;3.13;;
17725;SDS011;8983;53.156;17.960;2023-03-12T02:45:27;4.90;;;4.00;;
17725;SDS011;8983;53.156;17.960;2023-03-12T02:47:55;4.67;;;3.20;;
17725;SDS011;8983;53.156;17.960;2023-03-12T02:50:24;6.60;;;3.63;;
17725;SDS011;8983;53.156;17.960;2023-03-12T02:52:52;4.87;;;3.23;;
17725;SDS011;8983;53.156;17.960;2023-03-12T02:55:20;8.47;;;3.17;;
17725;SDS011;8983;53.156;17.960;2023-03-12T02:57:49;4.97;;;2.90;;
17725;SDS011;8983;53.156;17.960;2023-03-12T03:00:18;4.00;;;2.70;;
17725;SDS011;8983;53.156;17.960;2023-03-12T03:02:46;2.90;;;2.70;;
17725;SDS011;8983;53.156;17.960;2023-03-12T03:05:14;7.40;;;2.40;;
17725;SDS011;8983;53.156;17.960;2023-03-12T03:07:42;2.77;;;2.33;;
17725;SDS011;8983;53.156;17.960;2023-03-12T03:10:10;3.47;;;2.13;;
17725;SDS011;8983;53.156;17.960;2023-03-12T03:12:40;3.50;;;2.47;;
17725;SDS011;8983;53.156;17.960;2023-03-12T03:15:10;2.47;;;2.27;;
17725;SDS011;8983;53.156;17.960;2023-03-12T03:17:38;3.77;;;2.27;;
17725;SDS011;8983;53.156;17.960;2023-03-12T03:20:07;5.27;;;4.07;;
17725;SDS011;8983;53.156;17.960;2023-03-12T03:22:37;3.10;;;2.80;;
17725;SDS011;8983;53.156;17.960;2023-03-12T03:25:06;3.23;;;2.87;;
17725;SDS011;8983;53.156;17.960;2023-03-12T03:27:35;3.83;;;2.93;;
17725;SDS011;8983;53.156;17.960;2023-03-12T03:30:04;3.37;;;2.60;;
17725;SDS011;8983;53.156;17.960;2023-03-12T03:32:35;4.33;;;2.80;;
17725;SDS011;8983;53.156;17.960;2023-03-12T03:35:04;3.27;;;2.97;;
17725;SDS011;8983;53.156;17.960;2023-03-12T03:37:33;4.77;;;3.83;;
17725;SDS011;8983;53.156;17.960;2023-03-12T03:40:01;4.47;;;2.70;;
17725;SDS011;8983;53.156;17.960;2023-03-12T03:42:29;4.67;;;3.03;;
17725;SDS011;8983;53.156;17.960;2023-03-12T03:44:58;3.60;;;2.50;;
17725;SDS011;8983;53.156;17.960;2023-03-12T03:47:26;2.80;;;2.60;;
17725;SDS011;8983;53.156;17.960;2023-03-12T03:49:55;3.13;;;2.77;;
17725;SDS011;8983;53.156;17.960;2023-03-12T03:52:23;4.93;;;2.57;;
17725;SDS011;8983;53.156;17.960;2023-03-12T03:54:51;3.20;;;2.33;;
17725;SDS011;8983;53.156;17.960;2023-03-12T03:57:20;5.60;;;2.87;;
17725;SDS011;8983;53.156;17.960;2023-03-12T03:59:48;2.47;;;2.27;;
17725;SDS011;8983;53.156;17.960;2023-03-12T04:02:16;2.17;;;1.97;;
17725;SDS011;8983;53.156;17.960;2023-03-12T04:04:45;4.03;;;2.13;;
17725;SDS011;8983;53.156;17.960;2023-03-12T04:07:14;4.30;;;1.80;;
17725;SDS011;8983;53.156;17.960;2023-03-12T04:09:42;5.00;;;2.07;;
17725;SDS011;8983;53.156;17.960;2023-03-12T04:12:11;1.93;;;1.83;;
17725;SDS011;8983;53.156;17.960;2023-03-12T04:14:39;2.10;;;1.53;;
17725;SDS011;8983;53.156;17.960;2023-03-12T04:17:08;3.80;;;1.83;;
17725;SDS011;8983;53.156;17.960;2023-03-12T04:19:36;1.80;;;1.70;;
17725;SDS011;8983;53.156;17.960;2023-03-12T04:22:04;1.83;;;1.73;;
17725;SDS011;8983;53.156;17.960;2023-03-12T04:24:34;2.20;;;1.80;;
17725;SDS011;8983;53.156;17.960;2023-03-12T04:27:02;2.47;;;1.80;;
17725;SDS011;8983;53.156;17.960;2023-03-12T04:29:31;2.40;;;1.60;;
17725;SDS011;8983;53.156;17.960;2023-03-12T04:31:59;3.87;;;2.00;;
17725;SDS011;8983;53.156;17.960;2023-03-12T04:34:27;3.93;;;2.63;;
17725;SDS011;8983;53.156;17.960;2023-03-12T04:36:55;1.80;;;1.70;;
17725;SDS011;8983;53.156;17.960;2023-03-12T04:39:23;1.83;;;1.73;;
17725;SDS011;8983;53.156;17.960;2023-03-12T04:41:53;1.93;;;1.83;;
17725;SDS011;8983;53.156;17.960;2023-03-12T04:44:21;1.90;;;1.80;;
17725;SDS011;8983;53.156;17.960;2023-03-12T04:46:49;1.50;;;1.50;;
17725;SDS011;8983;53.156;17.960;2023-03-12T04:49:17;2.70;;;1.90;;
17725;SDS011;8983;53.156;17.960;2023-03-12T04:51:45;3.73;;;1.90;;
17725;SDS011;8983;53.156;17.960;2023-03-12T04:54:13;2.90;;;2.10;;
17725;SDS011;8983;53.156;17.960;2023-03-12T04:56:41;2.00;;;1.90;;
17725;SDS011;8983;53.156;17.960;2023-03-12T04:59:11;2.23;;;2.10;;
17725;SDS011;8983;53.156;17.960;2023-03-12T05:01:40;3.23;;;2.03;;
17725;SDS011;8983;53.156;17.960;2023-03-12T05:04:08;4.03;;;2.30;;
17725;SDS011;8983;53.156;17.960;2023-03-12T05:06:36;2.33;;;2.13;;
17725;SDS011;8983;53.156;17.960;2023-03-12T05:09:04;2.23;;;2.10;;
17725;SDS011;8983;53.156;17.960;2023-03-12T05:11:33;2.40;;;2.20;;
17725;SDS011;8983;53.156;17.960;2023-03-12T05:14:04;4.63;;;2.07;;
17725;SDS011;8983;53.156;17.960;2023-03-12T05:16:34;2.80;;;2.50;;
17725;SDS011;8983;53.156;17.960;2023-03-12T05:19:02;2.10;;;2.00;;
17725;SDS011;8983;53.156;17.960;2023-03-12T05:21:31;2.60;;;2.40;;
17725;SDS011;8983;53.156;17.960;2023-03-12T05:23:59;3.20;;;2.07;;
17725;SDS011;8983;53.156;17.960;2023-03-12T05:26:28;4.00;;;2.30;;
17725;SDS011;8983;53.156;17.960;2023-03-12T05:28:58;2.87;;;2.50;;
17725;SDS011;8983;53.156;17.960;2023-03-12T05:31:27;2.47;;;2.00;;
17725;SDS011;8983;53.156;17.960;2023-03-12T05:33:59;6.13;;;2.30;;
17725;SDS011;8983;53.156;17.960;2023-03-12T05:36:28;2.20;;;2.00;;
17725;SDS011;8983;53.156;17.960;2023-03-12T05:38:56;3.93;;;2.10;;
17725;SDS011;8983;53.156;17.960;2023-03-12T05:41:25;4.33;;;2.20;;
17725;SDS011;8983;53.156;17.960;2023-03-12T05:43:55;2.33;;;2.00;;
17725;SDS011;8983;53.156;17.960;2023-03-12T05:46:24;4.83;;;2.27;;
17725;SDS011;8983;53.156;17.960;2023-03-12T05:48:53;2.40;;;2.03;;
17725;SDS011;8983;53.156;17.960;2023-03-12T05:51:22;2.03;;;1.83;;
17725;SDS011;8983;53.156;17.960;2023-03-12T05:53:50;3.50;;;2.00;;
17725;SDS011;8983;53.156;17.960;2023-03-12T05:56:19;1.77;;;1.67;;
17725;SDS011;8983;53.156;17.960;2023-03-12T05:58:47;2.10;;;2.00;;
17725;SDS011;8983;53.156;17.960;2023-03-12T06:01:16;4.37;;;2.07;;
17725;SDS011;8983;53.156;17.960;2023-03-12T06:03:46;2.20;;;2.10;;
17725;SDS011;8983;53.156;17.960;2023-03-12T06:06:15;5.00;;;1.97;;
17725;SDS011;8983;53.156;17.960;2023-03-12T06:08:45;2.20;;;2.10;;
17725;SDS011;8983;53.156;17.960;2023-03-12T06:11:13;3.13;;;2.20;;
17725;SDS011;8983;53.156;17.960;2023-03-12T06:13:42;3.70;;;1.93;;
17725;SDS011;8983;53.156;17.960;2023-03-12T06:16:11;3.33;;;2.03;;
17725;SDS011;8983;53.156;17.960;2023-03-12T06:18:44;9.30;;;4.67;;
17725;SDS011;8983;53.156;17.960;2023-03-12T06:21:13;3.03;;;2.00;;
17725;SDS011;8983;53.156;17.960;2023-03-12T06:23:42;3.43;;;2.20;;
17725;SDS011;8983;53.156;17.960;2023-03-12T06:26:13;3.13;;;2.10;;
17725;SDS011;8983;53.156;17.960;2023-03-12T06:28:43;3.20;;;2.23;;
17725;SDS011;8983;53.156;17.960;2023-03-12T06:31:12;2.40;;;1.93;;
17725;SDS011;8983;53.156;17.960;2023-03-12T06:33:40;2.90;;;2.20;;
17725;SDS011;8983;53.156;17.960;2023-03-12T06:36:09;3.00;;;2.13;;
17725;SDS011;8983;53.156;17.960;2023-03-12T06:38:38;3.67;;;2.20;;
17725;SDS011;8983;53.156;17.960;2023-03-12T06:41:08;2.20;;;2.00;;
17725;SDS011;8983;53.156;17.960;2023-03-12T06:43:39;2.10;;;1.90;;
17725;SDS011;8983;53.156;17.960;2023-03-12T06:46:08;1.57;;;1.47;;
17725;SDS011;8983;53.156;17.960;2023-03-12T06:48:39;4.00;;;2.57;;
17725;SDS011;8983;53.156;17.960;2023-03-12T06:51:07;3.80;;;2.03;;
17725;SDS011;8983;53.156;17.960;2023-03-12T06:53:37;2.37;;;1.80;;
17725;SDS011;8983;53.156;17.960;2023-03-12T06:56:07;2.27;;;2.10;;
17725;SDS011;8983;53.156;17.960;2023-03-12T06:58:36;2.30;;;1.90;;
17725;SDS011;8983;53.156;17.960;2023-03-12T07:01:06;2.30;;;1.80;;
17725;SDS011;8983;53.156;17.960;2023-03-12T07:03:35;1.90;;;1.80;;
17725;SDS011;8983;53.156;17.960;2023-03-12T07:06:03;2.30;;;1.63;;
17725;SDS011;8983;53.156;17.960;2023-03-12T07:08:32;3.23;;;1.87;;
17725;SDS011;8983;53.156;17.960;2023-03-12T07:11:00;4.80;;;2.40;;
17725;SDS011;8983;53.156;17.960;2023-03-12T07:13:28;4.40;;;2.13;;
17725;SDS011;8983;53.156;17.960;2023-03-12T07:15:57;1.40;;;1.40;;
17725;SDS011;8983;53.156;17.960;2023-03-12T07:18:26;5.23;;;2.00;;
17725;SDS011;8983;53.156;17.960;2023-03-12T07:20:54;3.77;;;1.90;;
17725;SDS011;8983;53.156;17.960;2023-03-12T07:23:22;5.30;;;1.90;;
17725;SDS011;8983;53.156;17.960;2023-03-12T07:25:51;2.23;;;1.60;;
17725;SDS011;8983;53.156;17.960;2023-03-12T07:28:19;3.03;;;2.10;;
17725;SDS011;8983;53.156;17.960;2023-03-12T07:30:48;1.80;;;1.70;;
17725;SDS011;8983;53.156;17.960;2023-03-12T07:33:17;1.70;;;1.60;;
17725;SDS011;8983;53.156;17.960;2023-03-12T07:35:47;2.83;;;2.07;;
17725;SDS011;8983;53.156;17.960;2023-03-12T07:38:17;4.10;;;2.00;;
17725;SDS011;8983;53.156;17.960;2023-03-12T07:40:48;3.07;;;1.83;;
17725;SDS011;8983;53.156;17.960;2023-03-12T07:43:17;3.83;;;1.80;;
17725;SDS011;8983;53.156;17.960;2023-03-12T07:45:47;2.17;;;1.60;;
17725;SDS011;8983;53.156;17.960;2023-03-12T07:48:15;3.03;;;1.90;;
17725;SDS011;8983;53.156;17.960;2023-03-12T07:50:45;4.57;;;2.37;;
17725;SDS011;8983;53.156;17.960;2023-03-12T07:53:15;4.30;;;1.90;;
17725;SDS011;8983;53.156;17.960;2023-03-12T07:55:44;1.83;;;1.70;;
17725;SDS011;8983;53.156;17.960;2023-03-12T07:58:13;1.97;;;1.63;;
17725;SDS011;8983;53.156;17.960;2023-03-12T08:00:42;2.17;;;2.03;;
17725;SDS011;8983;53.156;17.960;2023-03-12T08:03:10;2.30;;;1.50;;
17725;SDS011;8983;53.156;17.960;2023-03-12T08:05:38;4.63;;;1.80;;
17725;SDS011;8983;53.156;17.960;2023-03-12T08:08:07;2.53;;;1.53;;
17725;SDS011;8983;53.156;17.960;2023-03-12T08:10:37;3.30;;;1.63;;
17725;SDS011;8983;53.156;17.960;2023-03-12T08:13:05;2.37;;;1.97;;
17725;SDS011;8983;53.156;17.960;2023-03-12T08:15:33;5.27;;;2.00;;
17725;SDS011;8983;53.156;17.960;2023-03-12T08:18:01;1.77;;;1.60;;
17725;SDS011;8983;53.156;17.960;2023-03-12T08:20:29;4.17;;;1.90;;
17725;SDS011;8983;53.156;17.960;2023-03-12T08:22:57;4.60;;;1.93;;
17725;SDS011;8983;53.156;17.960;2023-03-12T08:25:25;4.23;;;1.77;;
17725;SDS011;8983;53.156;17.960;2023-03-12T08:27:55;1.70;;;1.60;;
17725;SDS011;8983;53.156;17.960;2023-03-12T08:30:23;5.27;;;2.33;;
17725;SDS011;8983;53.156;17.960;2023-03-12T08:32:55;5.33;;;2.23;;
17725;SDS011;8983;53.156;17.960;2023-03-12T08:35:23;4.87;;;2.50;;
17725;SDS011;8983;53.156;17.960;2023-03-12T08:37:51;2.57;;;1.80;;
17725;SDS011;8983;53.156;17.960;2023-03-12T08:40:19;7.30;;;2.10;;
17725;SDS011;8983;53.156;17.960;2023-03-12T08:42:47;3.03;;;1.70;;
17725;SDS011;8983;53.156;17.960;2023-03-12T08:45:17;4.93;;;1.70;;
17725;SDS011;8983;53.156;17.960;2023-03-12T08:47:45;2.43;;;1.80;;
17725;SDS011;8983;53.156;17.960;2023-03-12T08:50:14;2.47;;;1.90;;
17725;SDS011;8983;53.156;17.960;2023-03-12T08:52:43;2.33;;;1.67;;
17725;SDS011;8983;53.156;17.960;2023-03-12T08:55:11;2.23;;;1.80;;
17725;SDS011;8983;53.156;17.960;2023-03-12T08:57:39;4.30;;;1.80;;
17725;SDS011;8983;53.156;17.960;2023-03-12T09:00:08;3.40;;;1.70;;
17725;SDS011;8983;53.156;17.960;2023-03-12T09:02:43;5.43;;;2.07;;
17725;SDS011;8983;53.156;17.960;2023-03-12T09:05:11;8.00;;;1.93;;
17725;SDS011;8983;53.156;17.960;2023-03-12T09:07:40;2.10;;;2.00;;
17725;SDS011;8983;53.156;17.960;2023-03-12T09:10:08;3.73;;;1.70;;
17725;SDS011;8983;53.156;17.960;2023-03-12T09:12:37;3.60;;;1.73;;
17725;SDS011;8983;53.156;17.960;2023-03-12T09:15:06;5.43;;;1.90;;
17725;SDS011;8983;53.156;17.960;2023-03-12T09:17:35;2.63;;;1.90;;
17725;SDS011;8983;53.156;17.960;2023-03-12T09:20:06;4.80;;;1.90;;
17725;SDS011;8983;53.156;17.960;2023-03-12T09:22:39;3.70;;;1.93;;
17725;SDS011;8983;53.156;17.960;2023-03-12T09:25:08;3.33;;;1.77;;
17725;SDS011;8983;53.156;17.960;2023-03-12T09:27:37;2.60;;;1.93;;
17725;SDS011;8983;53.156;17.960;2023-03-12T09:30:07;3.87;;;2.40;;
17725;SDS011;8983;53.156;17.960;2023-03-12T09:32:37;2.77;;;1.83;;
17725;SDS011;8983;53.156;17.960;2023-03-12T09:35:07;2.53;;;1.93;;
17725;SDS011;8983;53.156;17.960;2023-03-12T09:37:36;4.07;;;2.03;;
17725;SDS011;8983;53.156;17.960;2023-03-12T09:40:04;4.10;;;2.03;;
17725;SDS011;8983;53.156;17.960;2023-03-12T09:42:35;2.13;;;2.03;;
17725;SDS011;8983;53.156;17.960;2023-03-12T09:45:10;2.30;;;1.43;;
17725;SDS011;8983;53.156;17.960;2023-03-12T09:47:45;4.10;;;2.00;;
17725;SDS011;8983;53.156;17.960;2023-03-12T09:50:18;2.07;;;1.97;;
17725;SDS011;8983;53.156;17.960;2023-03-12T09:52:52;4.10;;;1.97;;
17725;SDS011;8983;53.156;17.960;2023-03-12T09:55:24;3.63;;;1.70;;
17725;SDS011;8983;53.156;17.960;2023-03-12T09:57:55;3.80;;;1.77;;
17725;SDS011;8983;53.156;17.960;2023-03-12T10:00:26;3.90;;;1.60;;
17725;SDS011;8983;53.156;17.960;2023-03-12T10:03:02;2.40;;;1.90;;
17725;SDS011;8983;53.156;17.960;2023-03-12T10:05:43;2.40;;;1.90;;
17725;SDS011;8983;53.156;17.960;2023-03-12T10:08:16;3.07;;;2.43;;
17725;SDS011;8983;53.156;17.960;2023-03-12T10:10:57;3.83;;;2.30;;
17725;SDS011;8983;53.156;17.960;2023-03-12T10:13:36;3.00;;;1.70;;
17725;SDS011;8983;53.156;17.960;2023-03-12T10:16:16;5.13;;;1.80;;
17725;SDS011;8983;53.156;17.960;2023-03-12T10:19:02;2.87;;;2.10;;
17725;SDS011;8983;53.156;17.960;2023-03-12T10:21:42;2.07;;;1.40;;
17725;SDS011;8983;53.156;17.960;2023-03-12T10:24:21;3.33;;;1.50;;
17725;SDS011;8983;53.156;17.960;2023-03-12T10:27:05;2.13;;;1.87;;
17725;SDS011;8983;53.156;17.960;2023-03-12T10:29:39;1.53;;;1.30;;
17725;SDS011;8983;53.156;17.960;2023-03-12T10:32:12;2.27;;;1.50;;
17725;SDS011;8983;53.156;17.960;2023-03-12T10:34:44;2.50;;;1.63;;
17725;SDS011;8983;53.156;17.960;2023-03-12T10:37:17;3.27;;;1.67;;
17725;SDS011;8983;53.156;17.960;2023-03-12T10:39:49;3.77;;;1.80;;
17725;SDS011;8983;53.156;17.960;2023-03-12T10:42:19;1.97;;;1.30;;
17725;SDS011;8983;53.156;17.960;2023-03-12T10:44:50;3.30;;;1.70;;
17725;SDS011;8983;53.156;17.960;2023-03-12T10:47:32;2.83;;;1.80;;
17725;SDS011;8983;53.156;17.960;2023-03-12T10:50:10;2.70;;;1.83;;
17725;SDS011;8983;53.156;17.960;2023-03-12T10:52:42;3.77;;;1.97;;
17725;SDS011;8983;53.156;17.960;2023-03-12T10:55:12;3.13;;;1.87;;
17725;SDS011;8983;53.156;17.960;2023-03-12T10:57:47;3.00;;;1.73;;
17725;SDS011;8983;53.156;17.960;2023-03-12T11:00:17;3.83;;;1.90;;
17725;SDS011;8983;53.156;17.960;2023-03-12T11:02:54;4.50;;;1.50;;
17725;SDS011;8983;53.156;17.960;2023-03-12T11:05:25;4.70;;;1.63;;
17725;SDS011;8983;53.156;17.960;2023-03-12T11:07:57;2.23;;;1.50;;
17725;SDS011;8983;53.156;17.960;2023-03-12T11:10:36;4.33;;;1.73;;
17725;SDS011;8983;53.156;17.960;2023-03-12T11:15:53;2.63;;;1.60;;
17725;SDS011;8983;53.156;17.960;2023-03-12T11:18:32;2.33;;;1.40;;
17725;SDS011;8983;53.156;17.960;2023-03-12T11:21:12;2.13;;;1.70;;
17725;SDS011;8983;53.156;17.960;2023-03-12T11:23:45;2.07;;;1.27;;
17725;SDS011;8983;53.156;17.960;2023-03-12T11:26:34;3.80;;;1.97;;
17725;SDS011;8983;53.156;17.960;2023-03-12T11:29:09;4.03;;;1.80;;
17725;SDS011;8983;53.156;17.960;2023-03-12T11:31:44;1.80;;;1.70;;
17725;SDS011;8983;53.156;17.960;2023-03-12T11:34:22;5.47;;;1.60;;
17725;SDS011;8983;53.156;17.960;2023-03-12T11:36:55;5.97;;;1.60;;
17725;SDS011;8983;53.156;17.960;2023-03-12T11:39:35;2.47;;;1.73;;
17725;SDS011;8983;53.156;17.960;2023-03-12T11:42:26;2.10;;;1.70;;
17725;SDS011;8983;53.156;17.960;2023-03-12T11:45:05;3.83;;;2.17;;
17725;SDS011;8983;53.156;17.960;2023-03-12T11:47:44;3.33;;;1.97;;
17725;SDS011;8983;53.156;17.960;2023-03-12T11:50:26;3.83;;;1.90;;
17725;SDS011;8983;53.156;17.960;2023-03-12T11:53:11;1.47;;;1.30;;
17725;SDS011;8983;53.156;17.960;2023-03-12T11:55:53;2.93;;;1.97;;
17725;SDS011;8983;53.156;17.960;2023-03-12T11:58:29;4.67;;;2.03;;
17725;SDS011;8983;53.156;17.960;2023-03-12T12:01:21;2.97;;;1.60;;
17725;SDS011;8983;53.156;17.960;2023-03-12T12:04:21;2.27;;;1.50;;
17725;SDS011;8983;53.156;17.960;2023-03-12T12:07:06;3.30;;;1.90;;
17725;SDS011;8983;53.156;17.960;2023-03-12T12:09:43;5.53;;;2.33;;
17725;SDS011;8983;53.156;17.960;2023-03-12T12:12:22;2.30;;;1.50;;
17725;SDS011;8983;53.156;17.960;2023-03-12T12:15:03;2.50;;;1.60;;
17725;SDS011;8983;53.156;17.960;2023-03-12T12:17:45;2.57;;;1.60;;
17725;SDS011;8983;53.156;17.960;2023-03-12T12:20:28;3.40;;;1.70;;
17725;SDS011;8983;53.156;17.960;2023-03-12T12:23:07;2.60;;;1.90;;
17725;SDS011;8983;53.156;17.960;2023-03-12T12:25:55;5.07;;;1.77;;
17725;SDS011;8983;53.156;17.960;2023-03-12T12:28:47;1.90;;;1.67;;
17725;SDS011;8983;53.156;17.960;2023-03-12T12:31:27;6.40;;;1.50;;
17725;SDS011;8983;53.156;17.960;2023-03-12T12:34:05;1.70;;;1.60;;
17725;SDS011;8983;53.156;17.960;2023-03-12T12:37:13;2.90;;;1.60;;
17725;SDS011;8983;53.156;17.960;2023-03-12T12:39:49;2.70;;;1.40;;
17725;SDS011;8983;53.156;17.960;2023-03-12T12:42:23;1.40;;;1.30;;
17725;SDS011;8983;53.156;17.960;2023-03-12T12:44:57;4.00;;;1.60;;
17725;SDS011;8983;53.156;17.960;2023-03-12T12:47:33;3.67;;;1.70;;
17725;SDS011;8983;53.156;17.960;2023-03-12T12:50:10;1.63;;;1.50;;
17725;SDS011;8983;53.156;17.960;2023-03-12T12:52:42;2.73;;;1.80;;
17725;SDS011;8983;53.156;17.960;2023-03-12T12:55:13;3.50;;;1.73;;
17725;SDS011;8983;53.156;17.960;2023-03-12T12:57:47;3.10;;;1.77;;
17725;SDS011;8983;53.156;17.960;2023-03-12T13:00:35;1.50;;;1.20;;
17725;SDS011;8983;53.156;17.960;2023-03-12T13:03:11;7.43;;;1.93;;
17725;SDS011;8983;53.156;17.960;2023-03-12T13:05:44;2.93;;;2.00;;
17725;SDS011;8983;53.156;17.960;2023-03-12T13:08:33;2.87;;;2.03;;
17725;SDS011;8983;53.156;17.960;2023-03-12T13:11:23;3.13;;;1.97;;
17725;SDS011;8983;53.156;17.960;2023-03-12T13:20:05;4.50;;;1.70;;
17725;SDS011;8983;53.156;17.960;2023-03-12T13:22:51;1.93;;;1.27;;
17725;SDS011;8983;53.156;17.960;2023-03-12T13:25:39;2.30;;;2.00;;
17725;SDS011;8983;53.156;17.960;2023-03-12T13:28:26;4.27;;;1.73;;
17725;SDS011;8983;53.156;17.960;2023-03-12T13:31:02;4.50;;;2.93;;
17725;SDS011;8983;53.156;17.960;2023-03-12T13:33:42;5.67;;;3.30;;
17725;SDS011;8983;53.156;17.960;2023-03-12T13:36:19;1.67;;;1.43;;
17725;SDS011;8983;53.156;17.960;2023-03-12T13:38:55;3.87;;;1.90;;
17725;SDS011;8983;53.156;17.960;2023-03-12T13:41:37;2.27;;;1.73;;
17725;SDS011;8983;53.156;17.960;2023-03-12T13:47:50;4.67;;;1.73;;
17725;SDS011;8983;53.156;17.960;2023-03-12T13:54:01;7.73;;;3.90;;
17725;SDS011;8983;53.156;17.960;2023-03-12T13:56:53;3.90;;;1.87;;
17725;SDS011;8983;53.156;17.960;2023-03-12T13:59:54;1.93;;;1.60;;
17725;SDS011;8983;53.156;17.960;2023-03-12T14:02:40;2.77;;;1.70;;
17725;SDS011;8983;53.156;17.960;2023-03-12T14:05:10;3.50;;;1.90;;
17725;SDS011;8983;53.156;17.960;2023-03-12T14:07:53;2.80;;;2.10;;
17725;SDS011;8983;53.156;17.960;2023-03-12T14:10:28;2.23;;;1.50;;
17725;SDS011;8983;53.156;17.960;2023-03-12T14:13:02;2.83;;;1.70;;
17725;SDS011;8983;53.156;17.960;2023-03-12T14:15:34;2.30;;;1.83;;
17725;SDS011;8983;53.156;17.960;2023-03-12T14:18:17;2.00;;;1.50;;
17725;SDS011;8983;53.156;17.960;2023-03-12T14:20:49;2.57;;;2.07;;
17725;SDS011;8983;53.156;17.960;2023-03-12T14:23:19;2.17;;;1.73;;
17725;SDS011;8983;53.156;17.960;2023-03-12T14:25:50;2.57;;;2.07;;
17725;SDS011;8983;53.156;17.960;2023-03-12T14:28:21;2.20;;;1.67;;
17725;SDS011;8983;53.156;17.960;2023-03-12T14:30:53;4.30;;;1.93;;
17725;SDS011;8983;53.156;17.960;2023-03-12T14:33:26;3.63;;;2.37;;
17725;SDS011;8983;53.156;17.960;2023-03-12T14:36:02;4.57;;;2.40;;
17725;SDS011;8983;53.156;17.960;2023-03-12T14:38:33;4.33;;;2.40;;
17725;SDS011;8983;53.156;17.960;2023-03-12T14:41:08;2.97;;;1.90;;
17725;SDS011;8983;53.156;17.960;2023-03-12T14:43:42;3.13;;;2.37;;
17725;SDS011;8983;53.156;17.960;2023-03-12T14:46:12;11.60;;;4.87;;
17725;SDS011;8983;53.156;17.960;2023-03-12T14:48:42;6.50;;;2.53;;
17725;SDS011;8983;53.156;17.960;2023-03-12T14:51:17;5.67;;;3.47;;
17725;SDS011;8983;53.156;17.960;2023-03-12T14:53:49;3.97;;;2.87;;
17725;SDS011;8983;53.156;17.960;2023-03-12T14:56:23;5.03;;;2.50;;
17725;SDS011;8983;53.156;17.960;2023-03-12T14:58:55;3.97;;;2.20;;
17725;SDS011;8983;53.156;17.960;2023-03-12T15:01:25;6.33;;;2.40;;
17725;SDS011;8983;53.156;17.960;2023-03-12T15:03:56;21.53;;;5.80;;
17725;SDS011;8983;53.156;17.960;2023-03-12T15:06:27;20.90;;;6.70;;
17725;SDS011;8983;53.156;17.960;2023-03-12T15:08:57;8.77;;;4.07;;
17725;SDS011;8983;53.156;17.960;2023-03-12T15:11:31;6.40;;;3.20;;
17725;SDS011;8983;53.156;17.960;2023-03-12T15:14:01;2.83;;;2.37;;
17725;SDS011;8983;53.156;17.960;2023-03-12T15:16:33;6.03;;;3.10;;
17725;SDS011;8983;53.156;17.960;2023-03-12T15:19:02;6.57;;;2.70;;
17725;SDS011;8983;53.156;17.960;2023-03-12T15:21:31;4.67;;;2.67;;
17725;SDS011;8983;53.156;17.960;2023-03-12T15:24:00;4.60;;;2.40;;
17725;SDS011;8983;53.156;17.960;2023-03-12T15:26:32;5.03;;;2.43;;
17725;SDS011;8983;53.156;17.960;2023-03-12T15:29:04;5.73;;;2.73;;
17725;SDS011;8983;53.156;17.960;2023-03-12T15:31:52;3.10;;;2.30;;